Time;durP1;ratioP1;P1;durP2;ratioP2;P2;SDS_P1;SDS_P2;PMS_P1;PMS_P2;Temp;Humidity;BMP_temperature;BMP_pressure;BME280_temperature;BME280_humidity;BME280_pressure;Samples;Min_cycle;Max_cycle;Signal;HPM_P1;HPM_P2
2021/09/20 00:00:38;;;;;;;6.20;5.00;;;15.00;99.90;;;;;;5052746;28;20021;-77
2021/09/20 00:03:04;;;;;;;5.10;4.60;;;15.00;99.90;;;;;;5052370;28;20036;-76
2021/09/20 00:05:29;;;;;;;4.93;4.45;;;15.00;99.90;;;;;;5052361;28;20025;-76
2021/09/20 00:07:55;;;;;;;4.80;4.40;;;15.00;99.90;;;;;;5052955;28;20032;-78
2021/09/20 00:10:21;;;;;;;5.32;4.40;;;15.00;99.90;;;;;;5052550;28;20021;-77
2021/09/20 00:12:47;;;;;;;5.38;4.88;;;15.00;99.90;;;;;;5051051;28;20079;-78
2021/09/20 00:15:13;;;;;;;5.28;4.78;;;14.90;99.90;;;;;;5052734;28;20385;-78
2021/09/20 00:17:39;;;;;;;6.78;5.43;;;14.90;99.90;;;;;;5052284;28;20028;-78
2021/09/20 00:20:07;;;;;;;5.20;4.70;;;14.90;99.90;;;;;;5052086;28;20029;-76
2021/09/20 00:22:33;;;;;;;6.60;5.03;;;14.90;99.90;;;;;;5052443;28;20033;-77
2021/09/20 00:24:59;;;;;;;4.63;4.22;;;14.90;99.90;;;;;;5052096;28;20029;-77
2021/09/20 00:27:24;;;;;;;4.90;4.50;;;14.90;99.90;;;;;;5052716;28;20033;-76
2021/09/20 00:29:50;;;;;;;4.35;3.95;;;15.70;99.90;;;;;;5054104;28;20032;-76
2021/09/20 00:32:15;;;;;;;4.55;4.15;;;14.90;99.90;;;;;;5055969;28;20032;-76
2021/09/20 00:34:42;;;;;;;5.65;4.40;;;14.90;99.90;;;;;;5057163;28;20059;-76
2021/09/20 00:37:08;;;;;;;4.80;4.40;;;14.90;99.90;;;;;;5056547;28;20025;-77
2021/09/20 00:39:34;;;;;;;6.55;4.32;;;14.80;99.90;;;;;;5055721;28;20060;-77
2021/09/20 00:42:00;;;;;;;6.65;4.60;;;14.80;99.90;;;;;;5056162;28;20072;-77
2021/09/20 00:44:25;;;;;;;5.10;4.57;;;14.80;99.90;;;;;;5056230;28;20061;-78
2021/09/20 00:46:51;;;;;;;4.90;4.50;;;14.80;99.90;;;;;;5055713;28;20021;-78
2021/09/20 00:49:16;;;;;;;4.75;4.22;;;14.80;99.90;;;;;;5056408;28;20023;-79
2021/09/20 00:51:42;;;;;;;6.90;4.72;;;14.70;99.90;;;;;;5056133;28;20025;-77
2021/09/20 00:54:07;;;;;;;6.55;4.45;;;14.70;99.90;;;;;;5055845;28;20032;-78
2021/09/20 00:56:33;;;;;;;6.60;4.72;;;14.70;99.90;;;;;;5056171;28;20059;-77
2021/09/20 00:59:00;;;;;;;5.28;4.75;;;14.70;99.90;;;;;;5055785;28;20461;-77
2021/09/20 01:01:26;;;;;;;4.55;4.18;;;14.70;99.90;;;;;;5055317;28;20101;-77
2021/09/20 01:03:52;;;;;;;5.05;4.55;;;14.70;99.90;;;;;;5055889;28;20036;-79
2021/09/20 01:06:18;;;;;;;5.38;4.70;;;14.60;99.90;;;;;;5055913;28;20029;-79
2021/09/20 01:08:43;;;;;;;4.57;4.18;;;14.70;99.90;;;;;;5055519;28;20068;-78
2021/09/20 01:11:09;;;;;;;5.57;4.93;;;14.60;99.90;;;;;;5055918;28;20231;-78
2021/09/20 01:13:34;;;;;;;5.05;4.65;;;14.60;99.90;;;;;;5055648;28;20028;-77
2021/09/20 01:16:00;;;;;;;9.60;5.70;;;14.60;99.90;;;;;;5055156;28;20399;-78
2021/09/20 01:18:26;;;;;;;5.38;4.93;;;14.60;99.90;;;;;;5055937;28;20496;-77
2021/09/20 01:20:51;;;;;;;5.38;4.88;;;14.50;99.90;;;;;;5055500;28;20139;-77
2021/09/20 01:23:19;;;;;;;5.68;5.18;;;14.50;99.90;;;;;;5055059;28;20025;-77
2021/09/20 01:25:44;;;;;;;5.20;4.68;;;14.40;99.90;;;;;;5055538;28;20492;-77
2021/09/20 01:28:10;;;;;;;6.70;5.75;;;14.40;99.90;;;;;;5054865;28;20021;-77
2021/09/20 01:30:36;;;;;;;5.45;4.95;;;14.40;99.90;;;;;;5055349;28;20025;-77
2021/09/20 01:33:02;;;;;;;6.30;5.53;;;14.40;99.90;;;;;;5059249;28;20041;-78
2021/09/20 01:35:28;;;;;;;5.13;4.72;;;14.30;99.90;;;;;;5054834;28;20108;-78
2021/09/20 01:37:53;;;;;;;5.55;4.88;;;14.30;99.90;;;;;;5055380;28;20025;-77
2021/09/20 01:40:19;;;;;;;5.50;4.93;;;14.30;99.90;;;;;;5054770;28;20037;-77
2021/09/20 01:42:45;;;;;;;6.03;5.53;;;14.30;99.90;;;;;;5053946;28;20036;-76
2021/09/20 01:45:13;;;;;;;6.75;5.43;;;14.30;99.90;;;;;;5057281;28;20032;-76
2021/09/20 01:47:39;;;;;;;6.10;5.53;;;14.30;99.90;;;;;;5054846;28;20385;-76
2021/09/20 01:50:06;;;;;;;7.32;5.32;;;14.30;99.90;;;;;;5054869;28;20017;-77
2021/09/20 01:52:32;;;;;;;5.70;5.20;;;14.20;99.90;;;;;;5055029;28;20094;-76
2021/09/20 01:54:58;;;;;;;6.57;5.60;;;14.20;99.90;;;;;;5054818;28;20025;-76
2021/09/20 01:57:23;;;;;;;6.78;6.18;;;14.20;99.90;;;;;;5054401;28;20028;-75
2021/09/20 01:59:50;;;;;;;6.22;5.60;;;14.20;99.90;;;;;;5054802;28;20469;-77
2021/09/20 02:02:16;;;;;;;6.30;5.30;;;14.20;99.90;;;;;;5054750;28;20033;-76
2021/09/20 02:04:42;;;;;;;8.25;6.15;;;14.20;99.90;;;;;;5054430;28;20025;-76
2021/09/20 02:07:08;;;;;;;5.75;5.30;;;14.20;99.90;;;;;;5054850;28;20119;-78
2021/09/20 02:09:33;;;;;;;6.20;5.50;;;14.10;99.90;;;;;;5054602;28;20098;-76
2021/09/20 02:11:59;;;;;;;6.38;5.78;;;14.10;99.90;;;;;;5054197;28;20021;-76
2021/09/20 02:14:28;;;;;;;5.68;5.10;;;14.10;99.90;;;;;;5054539;28;20021;-77
2021/09/20 02:16:54;;;;;;;6.43;5.70;;;14.00;99.90;;;;;;5054684;28;20028;-77
2021/09/20 02:19:19;;;;;;;7.20;5.60;;;14.00;99.90;;;;;;5054197;28;20440;-77
2021/09/20 02:21:45;;;;;;;6.38;5.78;;;14.00;99.90;;;;;;5054364;28;20400;-78
2021/09/20 02:24:11;;;;;;;6.30;5.72;;;14.00;99.90;;;;;;5054423;28;20060;-78
2021/09/20 02:26:36;;;;;;;8.32;5.70;;;14.10;99.90;;;;;;5053898;28;20028;-77
2021/09/20 02:29:03;;;;;;;7.28;5.40;;;14.10;99.90;;;;;;5054379;28;20033;-77
2021/09/20 02:31:29;;;;;;;7.68;6.00;;;14.10;99.90;;;;;;5054424;28;20033;-78
2021/09/20 02:33:54;;;;;;;6.70;6.10;;;14.10;99.90;;;;;;5054521;28;20017;-77
2021/09/20 02:36:20;;;;;;;7.72;6.28;;;14.10;99.90;;;;;;5054237;28;20503;-77
2021/09/20 02:38:45;;;;;;;7.20;6.22;;;14.10;99.90;;;;;;5053397;28;20033;-77
2021/09/20 02:41:11;;;;;;;12.02;6.38;;;14.10;99.90;;;;;;5053989;28;20045;-77
2021/09/20 02:43:37;;;;;;;6.75;6.15;;;14.10;99.90;;;;;;5053895;28;20049;-78
2021/09/20 02:46:04;;;;;;;6.80;6.20;;;14.10;99.90;;;;;;5053923;28;20377;-78
2021/09/20 02:48:30;;;;;;;7.32;6.50;;;14.10;99.90;;;;;;5054807;28;20025;-76
2021/09/20 02:50:56;;;;;;;7.75;7.05;;;14.00;99.90;;;;;;5053783;28;20511;-78
2021/09/20 02:53:21;;;;;;;7.15;6.45;;;14.00;99.90;;;;;;5053601;28;20037;-78
2021/09/20 02:55:47;;;;;;;7.60;6.32;;;14.00;99.90;;;;;;5054043;28;20021;-76
2021/09/20 02:58:13;;;;;;;7.75;7.03;;;14.00;99.90;;;;;;5055057;28;20029;-79
2021/09/20 03:00:38;;;;;;;7.97;7.28;;;13.90;99.90;;;;;;5053634;28;20477;-77
2021/09/20 03:03:06;;;;;;;6.95;6.35;;;13.90;99.90;;;;;;5053792;28;20025;-77
2021/09/20 03:05:31;;;;;;;9.60;6.80;;;13.90;99.90;;;;;;5053817;28;20021;-77
2021/09/20 03:07:57;;;;;;;8.57;6.75;;;13.80;99.90;;;;;;5052971;28;20036;-77
2021/09/20 03:10:22;;;;;;;7.20;6.47;;;13.80;99.90;;;;;;5053602;28;20029;-78
2021/09/20 03:12:48;;;;;;;7.85;6.88;;;13.80;99.90;;;;;;5053208;28;20405;-78
2021/09/20 03:15:14;;;;;;;8.63;7.20;;;13.80;99.90;;;;;;5053411;28;20021;-78
2021/09/20 03:17:39;;;;;;;11.07;6.90;;;13.80;99.90;;;;;;5053297;28;20032;-76
2021/09/20 03:20:06;;;;;;;7.78;6.97;;;13.80;99.90;;;;;;5053179;28;20052;-78
2021/09/20 03:22:31;;;;;;;7.55;6.70;;;13.70;99.90;;;;;;5052762;28;20032;-78
2021/09/20 03:24:57;;;;;;;9.98;6.75;;;13.70;99.90;;;;;;5053251;28;20428;-77
2021/09/20 03:27:22;;;;;;;8.25;6.30;;;13.60;99.90;;;;;;5053061;28;20059;-77
2021/09/20 03:29:48;;;;;;;6.68;5.97;;;13.60;99.90;;;;;;5052937;28;20477;-77
2021/09/20 03:32:14;;;;;;;9.55;6.30;;;13.60;99.90;;;;;;5053270;28;20481;-77
2021/09/20 03:34:39;;;;;;;9.02;6.80;;;13.60;99.90;;;;;;5052959;28;20025;-77
2021/09/20 03:37:05;;;;;;;7.20;6.50;;;13.60;99.90;;;;;;5052506;28;20116;-77
2021/09/20 03:39:30;;;;;;;7.75;6.93;;;13.60;99.90;;;;;;5053026;28;20060;-78
2021/09/20 03:41:56;;;;;;;7.40;6.60;;;13.50;99.90;;;;;;5052149;28;20443;-78
2021/09/20 03:44:22;;;;;;;7.22;6.47;;;13.60;99.90;;;;;;5053238;28;20060;-77
2021/09/20 03:46:47;;;;;;;6.30;5.70;;;13.50;99.90;;;;;;5052761;28;20032;-78
2021/09/20 03:49:14;;;;;;;7.13;6.13;;;13.50;99.90;;;;;;5052565;28;20025;-76
2021/09/20 03:51:40;;;;;;;7.57;6.80;;;13.50;99.90;;;;;;5052885;28;20488;-78
2021/09/20 03:54:05;;;;;;;8.68;6.85;;;13.50;99.90;;;;;;5052739;28;20017;-78
2021/09/20 03:56:31;;;;;;;7.82;7.03;;;13.50;99.90;;;;;;5052362;28;20483;-77
2021/09/20 03:58:56;;;;;;;7.05;6.28;;;13.50;99.90;;;;;;5053231;28;20432;-77
2021/09/20 04:01:22;;;;;;;6.90;6.30;;;13.50;99.90;;;;;;5054996;28;20523;-76
2021/09/20 04:03:47;;;;;;;7.50;6.00;;;13.40;99.90;;;;;;5052045;28;20014;-77
2021/09/20 04:06:13;;;;;;;6.88;5.70;;;13.40;99.90;;;;;;5052755;28;20155;-76
2021/09/20 04:08:39;;;;;;;7.65;6.38;;;13.40;99.90;;;;;;5052595;28;20112;-77
2021/09/20 04:11:04;;;;;;;9.82;6.70;;;13.50;99.90;;;;;;5052143;28;20021;-77
2021/09/20 04:13:30;;;;;;;6.60;5.85;;;13.40;99.90;;;;;;5056158;28;20032;-78
2021/09/20 04:15:56;;;;;;;6.35;5.75;;;13.40;99.90;;;;;;5052554;28;20098;-77
2021/09/20 04:18:26;;;;;;;9.43;6.10;;;13.40;99.90;;;;;;5052274;28;20090;-78
2021/09/20 04:20:53;;;;;;;7.18;6.47;;;13.30;99.90;;;;;;5052747;28;20033;-78
2021/09/20 04:23:20;;;;;;;8.13;6.43;;;13.40;99.90;;;;;;5052398;28;20511;-78
2021/09/20 04:25:47;;;;;;;7.18;6.30;;;13.40;99.90;;;;;;5051884;28;20037;-78
2021/09/20 04:28:14;;;;;;;8.30;6.65;;;13.40;99.90;;;;;;5052789;28;20079;-77
2021/09/20 04:30:43;;;;;;;6.82;6.20;;;13.30;99.90;;;;;;5052420;28;20025;-77
2021/09/20 04:33:11;;;;;;;6.95;6.35;;;13.30;99.90;;;;;;5052277;28;20374;-77
2021/09/20 04:35:37;;;;;;;8.05;6.03;;;13.30;99.90;;;;;;5052451;28;20484;-78
2021/09/20 04:38:02;;;;;;;6.90;5.78;;;13.30;99.90;;;;;;5052001;28;20045;-77
2021/09/20 04:40:28;;;;;;;8.50;6.18;;;13.20;99.90;;;;;;5052197;28;20098;-78
2021/09/20 04:42:53;;;;;;;7.85;6.07;;;13.30;99.90;;;;;;5052266;28;20033;-77
2021/09/20 04:45:19;;;;;;;7.18;6.47;;;13.20;99.90;;;;;;5052001;28;20028;-77
2021/09/20 04:47:45;;;;;;;7.82;6.45;;;13.20;99.90;;;;;;5052452;28;20021;-78
2021/09/20 04:50:12;;;;;;;9.60;6.13;;;13.20;99.90;;;;;;5052179;28;20036;-78
2021/09/20 04:52:37;;;;;;;6.55;5.97;;;13.10;99.90;;;;;;5051721;28;20028;-78
2021/09/20 04:55:04;;;;;;;6.93;6.32;;;13.20;99.90;;;;;;5052126;28;20029;-77
2021/09/20 04:57:32;;;;;;;6.00;5.50;;;13.10;99.90;;;;;;5051927;28;20032;-78
2021/09/20 04:59:58;;;;;;;7.85;6.28;;;13.10;99.90;;;;;;5051744;28;20547;-77
2021/09/20 05:02:23;;;;;;;6.82;6.13;;;13.20;99.90;;;;;;5052089;28;20049;-76
2021/09/20 05:04:49;;;;;;;6.85;6.25;;;13.10;99.90;;;;;;5052105;28;20376;-77
2021/09/20 05:07:14;;;;;;;6.50;5.32;;;13.10;99.90;;;;;;5051416;28;20021;-77
2021/09/20 05:09:40;;;;;;;6.15;5.55;;;13.00;99.90;;;;;;5052311;28;20119;-76
2021/09/20 05:12:05;;;;;;;6.55;5.95;;;13.00;99.90;;;;;;5051971;28;20082;-77
2021/09/20 05:14:31;;;;;;;6.65;6.05;;;13.00;99.90;;;;;;5051638;28;20025;-78
2021/09/20 05:16:58;;;;;;;6.88;5.63;;;13.00;99.90;;;;;;5053999;28;20078;-80
2021/09/20 05:19:25;;;;;;;9.07;6.03;;;13.10;99.90;;;;;;5055512;28;20078;-78
2021/09/20 05:21:51;;;;;;;11.05;6.38;;;13.10;99.90;;;;;;5055273;28;20076;-81
2021/09/20 05:24:16;;;;;;;6.35;5.80;;;13.10;99.90;;;;;;5056460;28;20068;-77
2021/09/20 05:26:42;;;;;;;6.47;5.82;;;13.10;99.90;;;;;;5055421;28;20028;-77
2021/09/20 05:29:07;;;;;;;10.77;6.28;;;13.10;99.90;;;;;;5055059;28;20025;-78
2021/09/20 05:31:33;;;;;;;6.30;5.70;;;13.20;99.90;;;;;;5055286;28;20025;-76
2021/09/20 05:33:58;;;;;;;7.32;6.18;;;13.10;99.90;;;;;;5055179;28;20037;-78
2021/09/20 05:36:24;;;;;;;7.40;5.60;;;13.20;99.90;;;;;;5054796;28;20380;-77
2021/09/20 05:38:49;;;;;;;9.10;5.93;;;13.20;99.90;;;;;;5055165;28;20085;-77
2021/09/20 05:41:15;;;;;;;6.93;6.25;;;13.10;99.90;;;;;;5054749;28;20049;-77
2021/09/20 05:43:40;;;;;;;6.43;5.82;;;13.10;99.90;;;;;;5054905;28;20112;-76
2021/09/20 05:46:06;;;;;;;6.82;6.00;;;13.10;99.90;;;;;;5055224;28;20547;-77
2021/09/20 05:48:32;;;;;;;6.68;5.90;;;13.10;99.90;;;;;;5054770;28;20381;-78
2021/09/20 05:50:57;;;;;;;7.93;7.13;;;13.00;99.90;;;;;;5055733;28;20025;-77
2021/09/20 05:53:23;;;;;;;7.88;7.07;;;13.00;99.90;;;;;;5055202;28;20024;-77
2021/09/20 05:55:49;;;;;;;10.57;7.10;;;13.00;99.90;;;;;;5054757;28;20024;-78
2021/09/20 05:58:14;;;;;;;8.02;6.43;;;13.00;99.90;;;;;;5054994;28;20370;-77
2021/09/20 06:00:40;;;;;;;6.78;6.18;;;12.90;99.90;;;;;;5054700;28;20024;-77
2021/09/20 06:03:05;;;;;;;6.32;5.72;;;12.90;99.90;;;;;;5054465;28;20075;-77
2021/09/20 06:05:32;;;;;;;8.65;6.75;;;12.90;99.90;;;;;;5055367;28;20112;-78
2021/09/20 06:07:58;;;;;;;7.20;6.53;;;13.00;99.90;;;;;;5054828;28;20025;-77
2021/09/20 06:10:23;;;;;;;13.40;7.15;;;13.00;99.90;;;;;;5054188;28;20397;-77
2021/09/20 06:12:49;;;;;;;7.25;6.55;;;13.00;99.90;;;;;;5054730;28;20040;-76
2021/09/20 06:15:15;;;;;;;8.48;7.32;;;13.00;99.90;;;;;;5054485;28;20107;-78
2021/09/20 06:17:41;;;;;;;7.43;6.65;;;13.00;99.90;;;;;;5054015;28;20032;-78
2021/09/20 06:20:08;;;;;;;7.85;7.05;;;13.00;99.90;;;;;;5054425;28;20103;-78
2021/09/20 06:22:35;;;;;;;8.27;7.55;;;13.00;99.90;;;;;;5054540;28;20075;-77
2021/09/20 06:25:00;;;;;;;10.70;7.45;;;13.00;99.90;;;;;;5053852;28;20108;-78
2021/09/20 06:27:27;;;;;;;13.35;7.35;;;13.00;99.90;;;;;;5054307;28;20178;-78
2021/09/20 06:29:54;;;;;;;6.95;6.28;;;13.00;99.90;;;;;;5054900;28;20148;-77
2021/09/20 06:32:19;;;;;;;7.10;6.40;;;13.10;99.90;;;;;;5054085;28;20113;-77
2021/09/20 06:34:46;;;;;;;7.50;6.78;;;13.10;99.90;;;;;;5054082;28;20056;-77
2021/09/20 06:37:12;;;;;;;7.78;6.95;;;13.20;99.90;;;;;;5053984;28;20115;-78
2021/09/20 06:39:38;;;;;;;7.82;7.05;;;13.20;99.90;;;;;;5053882;28;20544;-77
2021/09/20 06:42:05;;;;;;;7.72;7.00;;;13.20;99.90;;;;;;5054283;28;20116;-77
2021/09/20 06:44:31;;;;;;;8.73;6.60;;;13.20;99.90;;;;;;5054015;28;20461;-76
2021/09/20 06:46:57;;;;;;;7.68;6.95;;;13.30;99.90;;;;;;5053573;28;20025;-77
2021/09/20 06:49:22;;;;;;;8.23;7.10;;;13.30;99.90;;;;;;5053729;28;20699;-77
2021/09/20 06:51:50;;;;;;;6.97;6.28;;;13.30;99.90;;;;;;5053539;28;20116;-78
2021/09/20 06:54:17;;;;;;;8.38;7.35;;;13.30;99.90;;;;;;5053909;28;20462;-78
2021/09/20 06:56:42;;;;;;;9.48;7.60;;;13.30;99.90;;;;;;5053484;28;20121;-77
2021/09/20 06:59:08;;;;;;;7.57;6.80;;;13.30;99.90;;;;;;5053212;28;20120;-78
2021/09/20 07:01:34;;;;;;;9.00;7.72;;;13.30;99.90;;;;;;5053552;28;20360;-77
2021/09/20 07:04:00;;;;;;;8.90;8.00;;;13.70;99.90;;;;;;5053228;28;20081;-78
2021/09/20 07:06:26;;;;;;;12.57;7.57;;;13.30;99.90;;;;;;5053307;28;20024;-77
2021/09/20 07:08:51;;;;;;;9.70;8.70;;;13.40;99.90;;;;;;5053793;28;20024;-78
2021/09/20 07:11:17;;;;;;;9.10;7.43;;;13.40;99.90;;;;;;5054002;28;20024;-78
2021/09/20 07:13:42;;;;;;;8.30;6.85;;;13.30;99.90;;;;;;5053076;28;20025;-77
2021/09/20 07:16:08;;;;;;;8.07;7.28;;;13.40;99.90;;;;;;5053491;28;20032;-77
2021/09/20 07:18:33;;;;;;;10.32;7.45;;;13.40;99.90;;;;;;5052994;28;20017;-77
2021/09/20 07:20:59;;;;;;;9.02;7.32;;;13.40;99.90;;;;;;5053132;28;20035;-78
2021/09/20 07:23:27;;;;;;;8.88;7.57;;;13.50;99.90;;;;;;5053739;28;20048;-77
2021/09/20 07:25:53;;;;;;;9.82;7.70;;;13.60;99.90;;;;;;5053362;28;20461;-78
2021/09/20 07:28:18;;;;;;;10.55;7.75;;;13.60;99.90;;;;;;5052862;28;20082;-76
2021/09/20 07:30:44;;;;;;;10.77;7.30;;;13.60;99.90;;;;;;5051900;28;20029;-77
2021/09/20 07:33:10;;;;;;;11.48;7.93;;;13.70;99.90;;;;;;5052917;28;20029;-77
2021/09/20 07:35:36;;;;;;;8.30;7.40;;;13.80;99.90;;;;;;5052551;28;20546;-77
2021/09/20 07:38:02;;;;;;;8.90;7.45;;;13.80;99.90;;;;;;5053308;28;20398;-76
2021/09/20 07:40:29;;;;;;;9.15;7.10;;;13.90;99.90;;;;;;5052146;28;20065;-76
2021/09/20 07:42:56;;;;;;;8.70;7.68;;;13.90;99.90;;;;;;5052524;28;20114;-77
2021/09/20 07:45:22;;;;;;;8.20;7.40;;;13.90;99.90;;;;;;5052859;28;20391;-77
2021/09/20 07:47:48;;;;;;;8.80;7.93;;;14.00;99.90;;;;;;5053177;28;20017;-76
2021/09/20 07:50:15;;;;;;;9.50;7.68;;;14.10;99.90;;;;;;5053545;28;20049;-77
2021/09/20 07:52:41;;;;;;;8.73;7.90;;;14.10;99.90;;;;;;5052904;28;20029;-77
2021/09/20 07:55:07;;;;;;;13.63;7.72;;;14.10;99.90;;;;;;5052479;28;20063;-78
2021/09/20 07:57:33;;;;;;;8.60;7.80;;;14.10;99.90;;;;;;5052914;28;20037;-77
2021/09/20 07:59:59;;;;;;;8.60;7.68;;;14.20;99.90;;;;;;5052442;28;20024;-79
2021/09/20 08:02:24;;;;;;;7.15;6.45;;;14.20;99.90;;;;;;5052214;28;20044;-76
2021/09/20 08:04:53;;;;;;;8.80;7.88;;;14.20;99.90;;;;;;5053015;28;20025;-77
2021/09/20 08:07:18;;;;;;;7.88;7.05;;;14.30;99.90;;;;;;5052780;28;20025;-79
2021/09/20 08:09:44;;;;;;;9.77;8.82;;;14.30;99.90;;;;;;5052312;28;20036;-76
2021/09/20 08:12:09;;;;;;;8.75;7.80;;;14.40;99.90;;;;;;5052683;28;20033;-78
2021/09/20 08:14:35;;;;;;;8.15;7.35;;;14.30;99.90;;;;;;5052601;28;20017;-78
2021/09/20 08:17:01;;;;;;;10.05;7.80;;;14.40;99.90;;;;;;5052100;28;20055;-76
2021/09/20 08:19:27;;;;;;;10.63;7.88;;;14.40;99.90;;;;;;5052485;28;20021;-76
2021/09/20 08:21:53;;;;;;;9.05;8.15;;;14.40;99.90;;;;;;5052663;28;20028;-77
2021/09/20 08:24:19;;;;;;;9.27;8.38;;;14.40;99.90;;;;;;5052182;28;20461;-77
2021/09/20 08:26:45;;;;;;;8.73;7.93;;;14.40;99.90;;;;;;5052609;28;20025;-77
2021/09/20 08:29:11;;;;;;;9.38;8.48;;;14.40;99.90;;;;;;5052315;28;20082;-77
2021/09/20 08:31:37;;;;;;;10.02;8.60;;;14.40;99.90;;;;;;5051984;28;20029;-77
2021/09/20 08:34:03;;;;;;;11.73;9.05;;;14.50;99.90;;;;;;5052678;28;20103;-77
2021/09/20 08:36:28;;;;;;;10.00;8.95;;;14.50;99.90;;;;;;5052150;28;20025;-77
2021/09/20 08:38:54;;;;;;;9.57;8.68;;;14.50;99.90;;;;;;5052035;28;20025;-77
2021/09/20 08:41:19;;;;;;;10.48;9.38;;;14.50;99.90;;;;;;5052043;28;20513;-77
2021/09/20 08:43:46;;;;;;;10.02;9.15;;;14.60;99.90;;;;;;5052489;28;20021;-77
2021/09/20 08:46:12;;;;;;;10.45;9.43;;;14.60;99.90;;;;;;5051692;28;20076;-78
2021/09/20 08:48:43;;;;;;;10.63;9.57;;;14.60;99.90;;;;;;5052291;28;20499;-77
2021/09/20 08:51:10;;;;;;;11.13;10.05;;;14.70;99.90;;;;;;5054405;28;20021;-77
2021/09/20 08:53:36;;;;;;;10.75;9.65;;;14.70;99.90;;;;;;5055739;28;20033;-77
2021/09/20 08:56:03;;;;;;;11.57;10.38;;;14.80;99.90;;;;;;5056373;28;20439;-77
2021/09/20 08:58:28;;;;;;;10.10;9.15;;;14.80;99.90;;;;;;5055386;28;20461;-77
2021/09/20 09:00:54;;;;;;;10.93;9.88;;;14.90;99.90;;;;;;5055959;28;20021;-77
2021/09/20 09:03:28;;;;;;;10.55;9.45;;;15.00;99.90;;;;;;5055886;28;20025;-78
2021/09/20 09:05:54;;;;;;;11.45;9.80;;;15.00;99.90;;;;;;5055603;28;20429;-79
2021/09/20 09:08:38;;;;;;;12.00;10.75;;;15.10;99.90;;;;;;5061104;28;20428;-78
2021/09/20 09:11:11;;;;;;;11.40;10.30;;;15.10;99.90;;;;;;5057855;28;20362;-78
2021/09/20 09:13:40;;;;;;;11.45;10.35;;;15.20;99.90;;;;;;5055833;28;20047;-79
2021/09/20 09:16:22;;;;;;;12.63;9.93;;;15.30;99.90;;;;;;5056143;28;20115;-80
2021/09/20 09:19:09;;;;;;;11.48;9.77;;;15.40;99.90;;;;;;5055798;28;20036;-76
2021/09/20 09:21:41;;;;;;;13.38;9.57;;;15.40;99.90;;;;;;5055112;28;20389;-76
2021/09/20 09:24:08;;;;;;;10.77;9.30;;;15.40;99.90;;;;;;5056424;28;20029;-77
2021/09/20 09:26:34;;;;;;;12.95;9.73;;;15.40;99.90;;;;;;5056744;28;20021;-78
2021/09/20 09:29:11;;;;;;;12.48;9.32;;;15.50;99.90;;;;;;5056291;28;20017;-77
2021/09/20 09:31:38;;;;;;;10.63;9.25;;;15.60;99.90;;;;;;5056061;28;20033;-76
2021/09/20 09:34:25;;;;;;;13.63;9.32;;;15.60;99.90;;;;;;5055438;28;20052;-76
2021/09/20 09:36:51;;;;;;;9.73;8.80;;;15.70;99.90;;;;;;5055333;28;20441;-76
2021/09/20 09:39:27;;;;;;;13.18;9.27;;;15.70;99.90;;;;;;5055194;28;20018;-78
2021/09/20 09:41:53;;;;;;;11.10;9.48;;;15.80;99.90;;;;;;5054520;28;20568;-77
2021/09/20 09:44:27;;;;;;;11.52;9.48;;;15.80;99.90;;;;;;5055138;28;20048;-77
2021/09/20 09:46:52;;;;;;;9.55;8.65;;;15.80;99.90;;;;;;5053780;28;20492;-78
2021/09/20 09:49:21;;;;;;;9.43;8.48;;;15.90;99.90;;;;;;5054729;28;20025;-78
2021/09/20 09:51:59;;;;;;;8.88;7.97;;;16.00;99.90;;;;;;5055009;28;20021;-78
2021/09/20 09:54:36;;;;;;;14.43;9.00;;;16.10;99.90;;;;;;5055164;28;20059;-77
2021/09/20 09:57:17;;;;;;;9.70;8.80;;;16.20;99.90;;;;;;5055136;28;20171;-77
2021/09/20 09:59:43;;;;;;;8.57;7.80;;;16.30;99.90;;;;;;5054884;28;20039;-77
2021/09/20 10:02:18;;;;;;;9.27;8.38;;;17.10;99.90;;;;;;5053414;28;20508;-78
2021/09/20 10:04:56;;;;;;;11.50;8.50;;;16.40;99.90;;;;;;5054772;28;20021;-77
2021/09/20 10:07:25;;;;;;;8.63;7.93;;;16.50;99.90;;;;;;5054538;28;20043;-77
2021/09/20 10:09:51;;;;;;;7.90;7.05;;;16.50;99.90;;;;;;5054733;28;20029;-76
2021/09/20 10:12:21;;;;;;;13.68;7.25;;;16.60;99.90;;;;;;5055163;28;20029;-77
2021/09/20 10:14:48;;;;;;;8.45;7.65;;;16.60;99.90;;;;;;5055233;28;20025;-77
2021/09/20 10:17:18;;;;;;;8.27;7.57;;;16.70;99.90;;;;;;5054622;28;20025;-76
2021/09/20 10:19:44;;;;;;;8.73;7.22;;;16.80;99.90;;;;;;5054369;28;20024;-78
2021/09/20 10:22:14;;;;;;;7.55;6.85;;;16.80;99.90;;;;;;5054689;28;20040;-77
2021/09/20 10:24:43;;;;;;;7.10;6.50;;;16.90;99.90;;;;;;5054156;28;20380;-77
2021/09/20 10:27:11;;;;;;;6.70;6.13;;;16.90;99.90;;;;;;5054293;28;20021;-78
2021/09/20 10:29:38;;;;;;;7.80;7.00;;;16.80;99.90;;;;;;5054427;28;20065;-78
2021/09/20 10:32:05;;;;;;;7.80;7.03;;;16.90;99.80;;;;;;5054245;28;20048;-78
2021/09/20 10:34:31;;;;;;;10.98;7.78;;;16.90;99.70;;;;;;5053843;28;20139;-77
2021/09/20 10:37:02;;;;;;;8.70;7.82;;;17.00;99.90;;;;;;5053997;28;20174;-79
2021/09/20 10:39:43;;;;;;;;;;;17.00;99.70;;;;;;5054531;28;20429;-78
2021/09/20 10:42:11;;;;;;;8.23;7.20;;;17.10;99.50;;;;;;5053893;28;19912;-78
2021/09/20 10:44:42;;;;;;;7.22;6.63;;;17.00;98.80;;;;;;5053528;28;20021;-77
2021/09/20 10:47:15;;;;;;;7.75;7.05;;;17.10;98.60;;;;;;5054281;28;20033;-78
2021/09/20 10:49:48;;;;;;;7.90;7.10;;;17.00;98.00;;;;;;5053937;28;20025;-78
2021/09/20 10:52:15;;;;;;;7.60;7.00;;;16.90;97.70;;;;;;5053323;28;20096;-77
2021/09/20 10:55:06;;;;;;;8.77;7.93;;;17.00;98.20;;;;;;5053760;28;20029;-78
2021/09/20 10:57:32;;;;;;;;;;;17.10;98.00;;;;;;5054291;28;20039;-78
2021/09/20 11:00:25;;;;;;;7.72;6.80;;;17.10;97.70;;;;;;5053480;28;19905;-77
2021/09/20 11:02:50;;;;;;;7.50;6.57;;;17.20;97.60;;;;;;5053621;28;20036;-77
2021/09/20 11:05:24;;;;;;;7.63;6.53;;;17.30;97.30;;;;;;5053139;28;20017;-79
2021/09/20 11:07:51;;;;;;;9.02;5.80;;;17.40;97.50;;;;;;5053548;28;20449;-79
2021/09/20 11:10:28;;;;;;;6.68;6.07;;;17.50;97.10;;;;;;5053588;28;20029;-79
2021/09/20 11:13:07;;;;;;;7.35;6.68;;;17.60;97.00;;;;;;5053152;28;20110;-79
2021/09/20 11:15:43;;;;;;;9.30;6.13;;;17.70;96.40;;;;;;5053572;28;20055;-78
2021/09/20 11:18:09;;;;;;;8.48;6.03;;;17.70;96.40;;;;;;5053360;28;20472;-79
2021/09/20 11:20:40;;;;;;;9.90;6.20;;;17.70;96.30;;;;;;5052852;28;20029;-79
2021/09/20 11:23:23;;;;;;;6.72;6.13;;;17.70;95.90;;;;;;5054551;28;20087;-79
2021/09/20 11:26:06;;;;;;;6.85;6.25;;;17.60;95.70;;;;;;5054275;28;20043;-79
2021/09/20 11:28:34;;;;;;;6.97;6.00;;;17.60;95.60;;;;;;5053384;28;20028;-79
2021/09/20 11:30:59;;;;;;;7.03;6.43;;;17.70;95.70;;;;;;5053429;28;20039;-79
2021/09/20 11:33:44;;;;;;;6.35;5.80;;;17.80;95.30;;;;;;5053037;28;20021;-77
2021/09/20 11:36:23;;;;;;;7.03;6.43;;;17.90;95.70;;;;;;5055050;28;20029;-78
2021/09/20 11:38:50;;;;;;;6.80;6.00;;;18.00;95.30;;;;;;5053367;28;20457;-78
2021/09/20 11:41:20;;;;;;;6.28;5.75;;;18.10;94.90;;;;;;5052431;28;20750;-78
2021/09/20 11:43:46;;;;;;;7.05;6.45;;;18.20;95.00;;;;;;5053149;28;20021;-76
2021/09/20 11:46:18;;;;;;;8.20;5.88;;;18.20;94.80;;;;;;5053311;28;20064;-78
2021/09/20 11:48:43;;;;;;;6.43;5.82;;;18.30;94.70;;;;;;5052724;28;20025;-78
2021/09/20 11:51:09;;;;;;;6.07;5.30;;;18.30;94.00;;;;;;5052803;28;20036;-78
2021/09/20 11:53:35;;;;;;;6.13;5.63;;;18.30;94.10;;;;;;5052836;28;20060;-78
2021/09/20 11:56:00;;;;;;;6.50;5.95;;;18.30;94.40;;;;;;5052603;28;20103;-78
2021/09/20 11:58:26;;;;;;;6.65;6.05;;;18.70;94.50;;;;;;5052809;28;20057;-79
2021/09/20 12:00:53;;;;;;;8.15;5.95;;;18.50;94.60;;;;;;5052699;28;20060;-78
2021/09/20 12:03:22;;;;;;;6.18;5.57;;;18.50;94.00;;;;;;5052436;28;20115;-78
2021/09/20 12:05:48;;;;;;;6.38;5.78;;;18.70;93.80;;;;;;5052547;28;20021;-79
2021/09/20 12:08:24;;;;;;;6.93;5.90;;;18.70;93.90;;;;;;5052140;28;20071;-79
2021/09/20 12:10:55;;;;;;;7.10;5.85;;;18.80;93.90;;;;;;5052697;28;20545;-78
2021/09/20 12:13:39;;;;;;;16.67;5.93;;;18.90;93.50;;;;;;5052655;28;20217;-78
2021/09/20 12:16:09;;;;;;;7.20;6.00;;;19.00;93.40;;;;;;5052213;28;20025;-78
2021/09/20 12:18:35;;;;;;;6.87;6.27;;;19.10;93.10;;;;;;5052792;28;20027;-77
2021/09/20 12:21:12;;;;;;;6.40;5.85;;;19.20;92.80;;;;;;5055932;28;20167;-78
2021/09/20 12:23:40;;;;;;;6.32;5.82;;;19.20;92.80;;;;;;5053214;28;20025;-76
2021/09/20 12:26:12;;;;;;;6.22;5.25;;;19.30;93.00;;;;;;5055008;28;20029;-77
2021/09/20 12:28:54;;;;;;;6.38;5.82;;;19.40;92.60;;;;;;5057067;28;20035;-77
2021/09/20 12:31:26;;;;;;;6.57;5.93;;;19.50;92.50;;;;;;5056382;28;20045;-76
2021/09/20 12:34:02;;;;;;;5.57;5.18;;;19.60;92.50;;;;;;5056895;28;20550;-76
2021/09/20 12:36:38;;;;;;;6.18;5.68;;;19.60;91.90;;;;;;5056571;28;20035;-78
2021/09/20 12:39:17;;;;;;;6.97;5.55;;;19.70;92.10;;;;;;5056947;28;20025;-77
2021/09/20 12:41:53;;;;;;;5.90;5.32;;;19.90;91.60;;;;;;5056626;28;20049;-78
2021/09/20 12:44:30;;;;;;;5.75;5.22;;;20.00;91.60;;;;;;5056102;28;20029;-78
2021/09/20 12:47:07;;;;;;;6.45;5.88;;;20.00;91.10;;;;;;5056248;28;20052;-78